Aviation Digital Data Service (ADDS)

Output produced by TAFs form (2257 UTC 22 June 2018)
found at http://www.aviationweather.gov/adds/tafs/
 
KCLT 222252Z 23010KT 10SM FEW060 SCT150 SCT250 31/17 A2979 RMK AO2 SLP077 CB DSNT N TCU DSNT NW T03110172
KCLT 222151Z 2222/2324 23012G20KT P6SM VCSH SCT050 
     TEMPO 2300/2303 VRB20G25KT 4SM -TSRA BKN050CB 
     FM230300 21005KT P6SM BKN060 
     TEMPO 2303/2307 4SM -TSRA OVC035CB 
     FM230700 22007KT P6SM BKN060 
     FM231600 24009KT P6SM SCT060